Time;durP1;ratioP1;P1;durP2;ratioP2;P2;SDS_P1;SDS_P2;PMS_P1;PMS_P2;Temp;Humidity;BMP_temperature;BMP_pressure;BME280_temperature;BME280_humidity;BME280_pressure;Samples;Min_cycle;Max_cycle;Signal;HPM_P1;HPM_P2
2022/01/04 00:02:23;;;;;;;0.90;0.80;;;8.60;99.90;;;;;;5025284;28;20654;-63
2022/01/04 00:04:48;;;;;;;1.00;0.70;;;8.70;99.90;;;;;;5026193;28;20283;-65
2022/01/04 00:07:14;;;;;;;1.60;1.10;;;8.60;99.90;;;;;;5030468;28;20199;-65
2022/01/04 00:09:42;;;;;;;1.40;0.90;;;8.50;99.90;;;;;;5031881;28;20189;-64
2022/01/04 00:14:54;;;;;;;1.00;0.90;;;8.50;99.90;;;;;;5023751;28;20235;-69
2022/01/04 00:17:20;;;;;;;2.43;1.00;;;8.50;99.90;;;;;;5021622;28;20247;-64
2022/01/04 00:19:46;;;;;;;1.07;0.90;;;8.40;99.90;;;;;;5020639;28;20201;-69
2022/01/04 00:22:12;;;;;;;1.33;0.80;;;8.50;99.90;;;;;;5019698;28;20246;-64
2022/01/04 00:24:37;;;;;;;1.57;1.30;;;8.40;99.90;;;;;;5019017;28;21456;-67
2022/01/04 00:27:04;;;;;;;0.70;0.70;;;8.40;99.90;;;;;;5022874;28;20204;-64
2022/01/04 00:29:29;;;;;;;2.27;1.10;;;8.40;99.90;;;;;;5020068;28;20263;-64
2022/01/04 00:31:55;;;;;;;2.17;1.10;;;8.30;99.90;;;;;;5018989;28;20198;-65
2022/01/04 00:34:21;;;;;;;1.23;0.97;;;8.40;99.90;;;;;;5020097;28;20938;-65
2022/01/04 00:36:46;;;;;;;1.00;1.00;;;8.50;99.90;;;;;;5021021;28;20177;-63
2022/01/04 00:39:12;;;;;;;1.87;0.97;;;8.50;99.90;;;;;;5020046;28;20214;-71
2022/01/04 00:41:38;;;;;;;1.37;1.13;;;8.40;99.90;;;;;;5026654;28;20204;-65
2022/01/04 00:44:05;;;;;;;1.97;1.10;;;8.30;99.90;;;;;;5021400;28;20299;-66
2022/01/04 00:46:30;;;;;;;1.60;1.00;;;8.40;99.90;;;;;;5020515;28;20200;-64
2022/01/04 00:49:11;;;;;;;0.93;0.90;;;8.50;99.90;;;;;;5020451;28;20246;-65
2022/01/04 00:51:42;;;;;;;1.13;0.93;;;8.40;99.90;;;;;;5019196;28;20557;-64
2022/01/04 00:54:09;;;;;;;1.03;0.87;;;8.40;99.90;;;;;;5017356;28;20185;-65
2022/01/04 00:56:35;;;;;;;3.27;1.00;;;8.50;99.90;;;;;;5019560;28;20193;-64
2022/01/04 00:59:02;;;;;;;2.23;0.90;;;8.50;99.90;;;;;;5021808;28;20224;-63
2022/01/04 01:01:28;;;;;;;1.10;0.70;;;8.50;99.90;;;;;;5022546;28;20201;-65
2022/01/04 01:03:54;;;;;;;1.37;0.87;;;8.60;99.90;;;;;;5017390;28;20189;-64
2022/01/04 01:06:20;;;;;;;2.33;1.20;;;8.50;99.90;;;;;;5018241;28;20276;-63
2022/01/04 01:08:46;;;;;;;2.47;1.10;;;8.50;99.90;;;;;;5019863;28;20243;-68
2022/01/04 01:11:13;;;;;;;2.50;1.67;;;8.40;99.90;;;;;;5020422;28;20189;-64
2022/01/04 01:13:39;;;;;;;1.53;1.10;;;8.50;99.90;;;;;;5019952;28;20185;-65
2022/01/04 01:16:05;;;;;;;3.50;1.33;;;8.50;99.90;;;;;;5017872;28;20549;-64
2022/01/04 01:18:31;;;;;;;2.80;1.30;;;8.60;99.90;;;;;;5022638;28;20577;-65
2022/01/04 01:20:57;;;;;;;3.80;1.47;;;8.70;99.90;;;;;;5021709;28;20217;-67
2022/01/04 01:23:23;;;;;;;2.20;1.10;;;8.80;99.90;;;;;;5019848;28;20693;-63
2022/01/04 01:25:49;;;;;;;1.20;1.10;;;9.00;99.90;;;;;;5020130;28;20270;-63
2022/01/04 01:28:16;;;;;;;1.67;1.17;;;8.90;99.90;;;;;;5020690;28;20201;-69
2022/01/04 01:30:43;;;;;;;1.30;1.07;;;8.90;99.90;;;;;;5017606;28;20199;-63
2022/01/04 01:33:10;;;;;;;0.93;0.83;;;8.80;99.90;;;;;;5029330;28;20236;-70
2022/01/04 01:35:39;;;;;;;2.07;0.90;;;8.90;99.90;;;;;;5021836;28;20189;-64
2022/01/04 01:38:06;;;;;;;0.80;0.80;;;9.00;99.90;;;;;;5021338;28;20323;-71
2022/01/04 01:40:32;;;;;;;0.70;0.70;;;9.00;99.90;;;;;;5045293;28;20201;-64
2022/01/04 01:42:58;;;;;;;1.10;0.90;;;9.10;99.90;;;;;;5026873;28;20192;-67
2022/01/04 01:45:24;;;;;;;1.07;0.97;;;9.10;99.90;;;;;;5019676;28;20232;-64
2022/01/04 01:47:51;;;;;;;5.40;1.70;;;9.10;99.90;;;;;;5018284;28;20314;-64
2022/01/04 01:50:18;;;;;;;2.10;1.23;;;9.10;99.90;;;;;;5016376;28;20200;-67
2022/01/04 01:52:47;;;;;;;1.13;1.00;;;9.20;99.90;;;;;;5018165;28;20192;-65
2022/01/04 01:55:14;;;;;;;1.90;1.10;;;9.20;99.90;;;;;;5022359;28;20188;-64
2022/01/04 01:57:40;;;;;;;3.27;1.27;;;9.20;99.90;;;;;;5016180;28;20208;-64
2022/01/04 02:00:08;;;;;;;1.33;1.20;;;9.10;99.90;;;;;;5019445;28;20198;-68
2022/01/04 02:02:34;;;;;;;1.83;1.20;;;9.10;99.90;;;;;;5020411;28;20201;-65
2022/01/04 02:05:00;;;;;;;3.13;1.57;;;9.30;99.90;;;;;;5017993;28;20207;-64
2022/01/04 02:07:27;;;;;;;2.07;1.40;;;9.30;99.90;;;;;;5020369;28;20189;-68
2022/01/04 02:10:05;;;;;;;4.30;1.80;;;9.40;99.90;;;;;;5018076;28;20284;-63
2022/01/04 02:12:34;;;;;;;2.47;1.60;;;9.40;99.90;;;;;;5020073;28;20616;-64
2022/01/04 02:15:00;;;;;;;5.83;2.07;;;9.50;99.90;;;;;;5018804;28;20181;-64
2022/01/04 02:17:26;;;;;;;5.07;1.70;;;9.50;99.90;;;;;;5018551;28;20193;-64
2022/01/04 02:19:56;;;;;;;3.77;2.00;;;9.40;99.90;;;;;;5016108;28;20225;-66
2022/01/04 02:22:22;;;;;;;5.47;2.00;;;9.40;99.90;;;;;;5021584;28;20193;-64
2022/01/04 02:24:48;;;;;;;5.83;2.10;;;9.50;99.90;;;;;;5023376;28;20181;-66
2022/01/04 02:27:14;;;;;;;4.23;1.60;;;9.40;99.90;;;;;;5024203;28;20196;-66
2022/01/04 02:29:41;;;;;;;2.70;1.57;;;9.50;99.90;;;;;;5028288;28;20200;-65
2022/01/04 02:32:07;;;;;;;6.97;1.80;;;9.40;99.90;;;;;;5025247;28;20189;-64
2022/01/04 02:34:33;;;;;;;4.17;1.70;;;9.40;99.90;;;;;;5025879;28;20287;-62
2022/01/04 02:36:59;;;;;;;5.40;1.60;;;9.40;99.90;;;;;;5025069;28;20176;-62
2022/01/04 02:39:24;;;;;;;4.20;1.80;;;9.40;99.90;;;;;;5019400;28;20240;-66
2022/01/04 02:41:50;;;;;;;6.13;1.90;;;9.40;99.90;;;;;;5016226;28;20221;-64
2022/01/04 02:44:15;;;;;;;7.03;1.93;;;9.40;99.90;;;;;;5018229;28;20244;-65
2022/01/04 02:46:41;;;;;;;6.97;2.13;;;9.40;99.90;;;;;;5021748;28;20211;-64
2022/01/04 02:49:07;;;;;;;3.80;2.10;;;9.30;99.90;;;;;;5018173;28;20239;-66
2022/01/04 02:51:33;;;;;;;4.13;1.70;;;9.30;99.90;;;;;;5017833;28;20260;-63
2022/01/04 02:53:58;;;;;;;8.40;2.27;;;9.20;99.90;;;;;;5018113;28;20213;-65
2022/01/04 02:56:24;;;;;;;9.07;2.30;;;9.30;99.90;;;;;;5019646;28;20219;-63
2022/01/04 02:58:50;;;;;;;3.23;1.17;;;9.30;99.90;;;;;;5021459;28;20205;-67
2022/01/04 03:01:15;;;;;;;3.77;1.77;;;9.30;99.90;;;;;;5026112;28;20201;-63
2022/01/04 03:03:41;;;;;;;3.73;1.30;;;9.30;99.90;;;;;;5020623;28;20353;-65
2022/01/04 03:06:07;;;;;;;3.33;1.50;;;9.40;99.90;;;;;;5022272;28;20185;-64
2022/01/04 03:08:32;;;;;;;1.67;1.30;;;9.20;99.90;;;;;;5021890;28;20182;-64
2022/01/04 03:10:58;;;;;;;3.37;1.20;;;9.30;99.90;;;;;;5017965;28;20641;-64
2022/01/04 03:13:23;;;;;;;3.13;1.23;;;9.30;99.90;;;;;;5018646;28;20275;-68
2022/01/04 03:15:49;;;;;;;4.47;1.53;;;9.30;99.90;;;;;;5018840;28;20213;-63
2022/01/04 03:18:15;;;;;;;6.53;1.67;;;9.30;99.90;;;;;;5019360;28;20227;-64
2022/01/04 03:20:41;;;;;;;4.00;1.70;;;9.20;99.90;;;;;;5018775;28;20268;-63
2022/01/04 03:23:10;;;;;;;2.57;1.70;;;9.30;99.90;;;;;;5018187;28;20188;-65
2022/01/04 03:25:36;;;;;;;5.30;1.90;;;9.30;99.90;;;;;;5017204;28;20186;-66
2022/01/04 03:28:03;;;;;;;2.13;1.20;;;9.30;99.90;;;;;;5019272;28;20193;-63
2022/01/04 03:30:29;;;;;;;0.70;0.70;;;9.40;99.90;;;;;;5016881;28;20354;-64
2022/01/04 03:32:54;;;;;;;0.90;0.90;;;9.20;99.90;;;;;;5019201;28;20315;-64
2022/01/04 03:35:23;;;;;;;2.80;0.90;;;9.30;99.90;;;;;;5020564;28;20192;-62
2022/01/04 03:37:50;;;;;;;1.27;1.07;;;9.20;99.90;;;;;;5019962;28;20650;-64
2022/01/04 03:40:16;;;;;;;1.43;1.03;;;9.20;99.90;;;;;;5024487;28;20280;-66
2022/01/04 03:42:41;;;;;;;1.43;0.93;;;9.20;99.90;;;;;;5022076;28;20200;-63
2022/01/04 03:45:08;;;;;;;0.80;0.80;;;9.20;99.90;;;;;;5019385;28;20255;-64
2022/01/04 03:47:34;;;;;;;0.93;0.83;;;9.20;99.90;;;;;;5021715;28;20191;-63
2022/01/04 03:50:00;;;;;;;0.80;0.70;;;9.20;99.90;;;;;;5022575;28;20279;-65
2022/01/04 03:52:26;;;;;;;1.60;1.10;;;9.20;99.90;;;;;;5020306;28;20262;-72
2022/01/04 03:54:51;;;;;;;2.37;1.10;;;9.20;99.90;;;;;;5020898;28;20196;-64
2022/01/04 03:57:17;;;;;;;0.90;0.90;;;9.10;99.90;;;;;;5019506;28;20594;-70
2022/01/04 03:59:43;;;;;;;2.40;0.90;;;9.00;99.90;;;;;;5021495;28;20204;-70
2022/01/04 04:02:08;;;;;;;1.40;1.00;;;9.00;99.90;;;;;;5020700;28;20196;-65
2022/01/04 04:04:34;;;;;;;1.43;1.00;;;9.00;99.90;;;;;;5022085;28;20521;-64
2022/01/04 04:07:00;;;;;;;1.30;0.90;;;9.00;99.90;;;;;;5018973;28;20188;-63
2022/01/04 04:09:25;;;;;;;1.23;1.00;;;8.90;99.90;;;;;;5019022;28;20192;-64
2022/01/04 04:11:51;;;;;;;2.33;1.23;;;8.90;99.90;;;;;;5020422;28;20197;-64
2022/01/04 04:14:17;;;;;;;5.20;1.50;;;8.70;99.90;;;;;;5024620;28;20197;-65
2022/01/04 04:16:42;;;;;;;2.30;1.67;;;8.80;99.90;;;;;;5020651;28;20300;-65
2022/01/04 04:19:08;;;;;;;1.47;1.20;;;8.70;99.90;;;;;;5022762;28;20249;-65
2022/01/04 04:21:33;;;;;;;1.00;0.90;;;8.70;99.90;;;;;;5020967;28;20197;-63
2022/01/04 04:23:59;;;;;;;1.20;1.10;;;8.60;99.90;;;;;;5025102;28;20644;-67
2022/01/04 04:26:25;;;;;;;2.60;1.37;;;8.60;99.90;;;;;;5034349;28;20181;-63
2022/01/04 04:28:50;;;;;;;1.33;1.20;;;8.70;99.90;;;;;;5023718;28;20199;-65
2022/01/04 04:31:16;;;;;;;2.93;1.00;;;8.60;99.90;;;;;;5018201;28;20200;-63
2022/01/04 04:33:42;;;;;;;1.10;1.00;;;8.60;99.90;;;;;;5023280;28;20243;-65
2022/01/04 04:36:10;;;;;;;0.90;0.90;;;8.60;99.90;;;;;;5020494;28;20656;-68
2022/01/04 04:38:36;;;;;;;1.23;1.10;;;8.60;99.90;;;;;;5018397;28;20254;-66
2022/01/04 04:41:02;;;;;;;2.00;1.37;;;8.70;99.90;;;;;;5018662;28;20201;-63
2022/01/04 04:43:28;;;;;;;1.30;1.20;;;8.50;99.90;;;;;;5018428;28;20667;-64
2022/01/04 04:45:54;;;;;;;1.60;1.03;;;8.60;99.90;;;;;;5020271;28;20189;-63
2022/01/04 04:48:20;;;;;;;2.80;1.20;;;8.60;99.90;;;;;;5020087;28;20185;-69
2022/01/04 04:50:46;;;;;;;2.20;1.13;;;8.70;99.90;;;;;;5020149;28;20182;-65
2022/01/04 04:53:12;;;;;;;3.70;1.10;;;8.60;99.90;;;;;;5018458;28;20618;-64
2022/01/04 04:55:38;;;;;;;1.30;1.10;;;8.60;99.90;;;;;;5021637;28;20208;-67
2022/01/04 04:58:03;;;;;;;0.90;0.90;;;8.60;99.90;;;;;;5018100;28;20565;-63
2022/01/04 05:00:29;;;;;;;1.07;1.00;;;8.60;99.90;;;;;;5019791;28;20193;-65
2022/01/04 05:02:54;;;;;;;1.13;0.93;;;8.60;99.90;;;;;;5023706;28;20181;-64
2022/01/04 05:05:20;;;;;;;1.30;1.03;;;8.60;99.90;;;;;;5019765;28;20189;-64
2022/01/04 05:07:46;;;;;;;1.20;1.10;;;8.60;99.90;;;;;;5020213;28;20185;-63
2022/01/04 05:10:12;;;;;;;4.37;1.13;;;8.50;99.90;;;;;;5019360;28;20182;-64
2022/01/04 05:12:37;;;;;;;1.00;1.00;;;8.60;99.90;;;;;;5017915;28;20549;-69
2022/01/04 05:15:04;;;;;;;0.80;0.80;;;8.60;99.90;;;;;;5019936;28;21080;-65
2022/01/04 05:17:31;;;;;;;1.70;1.13;;;8.50;99.90;;;;;;5019080;28;20664;-63
2022/01/04 05:19:56;;;;;;;1.23;1.03;;;8.60;99.90;;;;;;5021326;28;20678;-62
2022/01/04 05:22:22;;;;;;;2.17;1.40;;;8.70;99.90;;;;;;5019050;28;20221;-63
2022/01/04 05:24:48;;;;;;;1.20;1.07;;;8.70;99.90;;;;;;5017592;28;20267;-67
2022/01/04 05:27:13;;;;;;;1.20;0.80;;;8.60;99.90;;;;;;5021960;28;20197;-64
2022/01/04 05:29:39;;;;;;;1.10;1.00;;;8.60;99.90;;;;;;5019901;28;20189;-64
2022/01/04 05:32:06;;;;;;;0.83;0.80;;;8.60;99.90;;;;;;5022991;28;20196;-64
2022/01/04 05:34:31;;;;;;;1.10;1.00;;;8.60;99.90;;;;;;5033687;28;20350;-63
2022/01/04 05:36:57;;;;;;;1.43;1.10;;;8.50;99.90;;;;;;5017895;28;20189;-67
2022/01/04 05:39:22;;;;;;;2.03;1.43;;;8.60;99.90;;;;;;5019148;28;20220;-65
2022/01/04 05:41:48;;;;;;;1.73;1.17;;;8.50;99.90;;;;;;5019978;28;20518;-64
2022/01/04 05:44:14;;;;;;;1.37;1.10;;;8.50;99.90;;;;;;5023044;28;20220;-68
2022/01/04 05:46:39;;;;;;;1.27;1.13;;;8.50;99.90;;;;;;5019514;28;20180;-65
2022/01/04 05:49:05;;;;;;;1.23;1.13;;;8.60;99.90;;;;;;5022567;28;20252;-64
2022/01/04 05:51:31;;;;;;;1.23;1.00;;;8.50;99.90;;;;;;5024472;28;20182;-66
2022/01/04 05:53:56;;;;;;;1.93;1.43;;;8.50;99.90;;;;;;5030124;28;20189;-65
2022/01/04 05:56:22;;;;;;;3.23;1.63;;;8.60;99.90;;;;;;5026355;28;20620;-66
2022/01/04 05:58:47;;;;;;;2.53;1.80;;;8.50;99.90;;;;;;5023600;28;20621;-63
2022/01/04 06:01:13;;;;;;;3.00;1.70;;;8.50;99.90;;;;;;5023415;28;20204;-64
2022/01/04 06:03:39;;;;;;;2.37;1.90;;;8.50;99.90;;;;;;5019895;28;20193;-67
2022/01/04 06:06:04;;;;;;;3.00;1.73;;;8.50;99.90;;;;;;5017740;28;20710;-64
2022/01/04 06:08:34;;;;;;;2.70;1.90;;;8.50;99.90;;;;;;5017192;28;20196;-63
2022/01/04 06:11:01;;;;;;;3.57;2.17;;;8.40;99.90;;;;;;5018007;28;20196;-63
2022/01/04 06:16:11;;;;;;;1.70;1.60;;;8.40;99.90;;;;;;5019724;28;20701;-64
2022/01/04 06:18:37;;;;;;;3.00;2.00;;;8.30;99.90;;;;;;5018483;28;20217;-69
2022/01/04 06:21:05;;;;;;;4.93;2.60;;;8.40;99.90;;;;;;5023470;28;20180;-65
2022/01/04 06:23:31;;;;;;;4.43;2.57;;;8.40;99.90;;;;;;5021354;28;20188;-69
2022/01/04 06:25:57;;;;;;;4.73;2.50;;;8.50;99.90;;;;;;5019593;28;20538;-65
2022/01/04 06:28:22;;;;;;;6.07;2.33;;;8.30;99.90;;;;;;5021544;28;20602;-67
2022/01/04 06:30:50;;;;;;;4.73;3.03;;;8.50;99.90;;;;;;5020128;28;20185;-63
2022/01/04 06:33:20;;;;;;;5.30;2.70;;;8.40;99.90;;;;;;5016317;28;20244;-63
2022/01/04 06:35:47;;;;;;;3.33;2.90;;;8.30;99.90;;;;;;5018310;28;20184;-64
2022/01/04 06:38:12;;;;;;;3.93;2.90;;;8.30;99.90;;;;;;5020316;28;20691;-63
2022/01/04 06:40:38;;;;;;;6.73;3.10;;;8.20;99.90;;;;;;5018541;28;20193;-63
2022/01/04 06:43:04;;;;;;;7.10;3.73;;;8.20;99.90;;;;;;5013785;28;20188;-68
2022/01/04 06:45:30;;;;;;;6.77;4.07;;;8.20;99.90;;;;;;5017123;28;20188;-65
2022/01/04 06:47:55;;;;;;;4.80;2.77;;;8.10;99.90;;;;;;5019197;28;20181;-65
2022/01/04 06:50:21;;;;;;;4.90;2.83;;;8.20;99.90;;;;;;5015682;28;20192;-65
2022/01/04 06:52:47;;;;;;;7.40;3.43;;;8.40;99.90;;;;;;5021243;28;20285;-67
2022/01/04 06:55:14;;;;;;;6.17;3.80;;;8.30;99.90;;;;;;5018332;28;20576;-68
2022/01/04 06:57:40;;;;;;;6.23;3.63;;;8.30;99.90;;;;;;5016069;28;20231;-66
2022/01/04 07:00:06;;;;;;;6.90;3.70;;;8.40;99.90;;;;;;5017629;28;20622;-64
2022/01/04 07:02:31;;;;;;;4.83;2.80;;;8.30;99.90;;;;;;5019450;28;20597;-66
2022/01/04 07:04:57;;;;;;;5.53;3.60;;;8.30;99.90;;;;;;5021503;28;20188;-66
2022/01/04 07:07:24;;;;;;;4.20;3.00;;;8.30;99.90;;;;;;5023104;28;20180;-68
2022/01/04 07:09:49;;;;;;;5.83;2.53;;;8.40;99.90;;;;;;5023753;28;20191;-68
2022/01/04 07:12:15;;;;;;;5.17;2.87;;;8.30;99.90;;;;;;5024737;28;20683;-64
2022/01/04 07:14:41;;;;;;;4.37;2.97;;;8.30;99.90;;;;;;5017931;28;20271;-65
2022/01/04 07:17:06;;;;;;;6.43;3.30;;;8.30;99.90;;;;;;5020337;28;20964;-69
2022/01/04 07:19:32;;;;;;;5.80;3.27;;;8.40;99.90;;;;;;5033418;28;20227;-70
2022/01/04 07:21:58;;;;;;;3.77;2.80;;;8.40;99.90;;;;;;5018186;28;20227;-68
2022/01/04 07:24:23;;;;;;;3.83;3.07;;;8.40;99.90;;;;;;5016167;28;20189;-63
2022/01/04 07:26:49;;;;;;;3.90;3.17;;;8.40;99.90;;;;;;5016432;28;20560;-64
2022/01/04 07:29:15;;;;;;;4.10;2.93;;;8.40;99.90;;;;;;5018559;28;20562;-63
2022/01/04 07:31:41;;;;;;;3.87;2.77;;;8.40;99.90;;;;;;5015461;28;20261;-66
2022/01/04 07:34:07;;;;;;;4.40;2.60;;;8.40;99.90;;;;;;5012567;28;20321;-64
2022/01/04 07:36:32;;;;;;;4.27;2.73;;;8.40;99.90;;;;;;5016909;28;20209;-67
2022/01/04 07:38:58;;;;;;;5.90;2.93;;;8.40;99.90;;;;;;5013610;28;20712;-64
2022/01/04 07:41:24;;;;;;;6.27;3.93;;;8.30;99.90;;;;;;5016367;28;20178;-65
2022/01/04 07:43:50;;;;;;;5.80;2.87;;;8.30;99.90;;;;;;5014283;28;20248;-64
2022/01/04 07:46:16;;;;;;;6.37;2.87;;;8.40;99.90;;;;;;5016834;28;20556;-63
2022/01/04 07:48:42;;;;;;;3.60;2.17;;;8.30;99.90;;;;;;5016748;28;20312;-67
2022/01/04 07:51:07;;;;;;;3.53;2.73;;;8.30;99.90;;;;;;5016672;28;20640;-65
2022/01/04 07:53:34;;;;;;;4.63;2.50;;;8.20;99.90;;;;;;5017106;28;20192;-65
2022/01/04 07:56:00;;;;;;;3.80;2.47;;;8.30;99.90;;;;;;5018873;28;20185;-65
2022/01/04 07:58:26;;;;;;;2.83;2.00;;;8.40;99.90;;;;;;5018666;28;20273;-68
2022/01/04 08:00:52;;;;;;;3.83;2.73;;;8.40;99.90;;;;;;5017829;28;20637;-65
2022/01/04 08:03:18;;;;;;;3.10;2.30;;;8.40;99.90;;;;;;5013811;28;20199;-64
2022/01/04 08:05:44;;;;;;;7.67;4.83;;;8.30;99.90;;;;;;5016195;28;20184;-64
2022/01/04 08:08:10;;;;;;;4.57;3.20;;;8.40;99.90;;;;;;5014827;28;20262;-64
2022/01/04 08:10:36;;;;;;;6.73;4.17;;;8.40;99.90;;;;;;5016203;28;20192;-66
2022/01/04 08:13:02;;;;;;;3.77;2.70;;;8.40;99.90;;;;;;5016984;28;20204;-68
2022/01/04 08:15:27;;;;;;;2.97;2.50;;;8.40;99.90;;;;;;5015904;28;20311;-66
2022/01/04 08:17:53;;;;;;;6.27;2.50;;;8.50;99.90;;;;;;5019187;28;20276;-66
2022/01/04 08:20:19;;;;;;;4.97;2.90;;;8.50;99.90;;;;;;5020840;28;20201;-65
2022/01/04 08:22:45;;;;;;;3.93;2.67;;;8.40;99.90;;;;;;5019186;28;20264;-68
2022/01/04 08:25:11;;;;;;;4.30;2.97;;;8.50;99.90;;;;;;5020190;28;20868;-64
2022/01/04 08:27:38;;;;;;;4.27;3.47;;;8.40;99.90;;;;;;5020051;28;20224;-64
2022/01/04 08:30:05;;;;;;;90.17;40.53;;;8.50;99.90;;;;;;5018599;28;20205;-63
2022/01/04 08:32:31;;;;;;;15.70;8.57;;;8.50;99.90;;;;;;5019992;28;20195;-63
2022/01/04 08:34:57;;;;;;;7.33;4.90;;;8.50;99.90;;;;;;5020667;28;20559;-67
2022/01/04 08:37:23;;;;;;;4.23;3.03;;;8.50;99.90;;;;;;5019005;28;20235;-66
2022/01/04 08:39:48;;;;;;;3.50;2.67;;;8.40;99.90;;;;;;5015948;28;20209;-63
2022/01/04 08:42:14;;;;;;;31.17;12.27;;;8.40;99.90;;;;;;5016970;28;20192;-64
2022/01/04 08:44:40;;;;;;;301.77;84.00;;;8.50;99.90;;;;;;5022555;28;20223;-64
2022/01/04 08:47:11;;;;;;;33.97;13.60;;;8.50;99.90;;;;;;5023347;28;20200;-64
2022/01/04 08:49:38;;;;;;;36.20;18.03;;;8.50;99.90;;;;;;5021476;28;20215;-66
2022/01/04 08:52:06;;;;;;;9.40;3.93;;;8.60;99.90;;;;;;5020451;28;20267;-65
2022/01/04 08:54:33;;;;;;;6.67;4.63;;;8.60;99.90;;;;;;5018911;28;20295;-64
2022/01/04 08:56:59;;;;;;;5.53;3.50;;;8.70;99.90;;;;;;5018620;28;20234;-70
2022/01/04 08:59:26;;;;;;;8.40;4.23;;;8.70;99.90;;;;;;5019437;28;20235;-65
2022/01/04 09:01:52;;;;;;;4.93;3.10;;;8.60;99.90;;;;;;5018713;28;20189;-66
2022/01/04 09:04:18;;;;;;;6.63;4.57;;;8.60;99.90;;;;;;5019097;28;20196;-63
2022/01/04 09:06:43;;;;;;;6.03;4.23;;;8.60;99.90;;;;;;5016621;28;20189;-65
2022/01/04 09:09:09;;;;;;;5.30;3.00;;;8.60;99.90;;;;;;5016076;28;20204;-64
2022/01/04 09:11:35;;;;;;;8.83;3.93;;;8.60;99.90;;;;;;5020114;28;20235;-66
2022/01/04 09:14:19;;;;;;;8.80;4.40;;;8.60;99.90;;;;;;5022077;28;20238;-65
2022/01/04 09:19:29;;;;;;;4.63;2.20;;;8.60;99.90;;;;;;5026897;28;20663;-65
2022/01/04 09:21:55;;;;;;;4.03;2.43;;;8.60;99.90;;;;;;5023827;28;20194;-66
2022/01/04 09:24:21;;;;;;;2.10;1.83;;;8.60;99.90;;;;;;5022883;28;20604;-65
2022/01/04 09:26:50;;;;;;;2.43;2.13;;;8.60;99.90;;;;;;5024909;28;20193;-65
2022/01/04 09:29:19;;;;;;;1.77;1.53;;;8.50;99.90;;;;;;5022754;28;20676;-64
2022/01/04 09:31:50;;;;;;;2.07;1.87;;;8.60;99.90;;;;;;5017395;28;20192;-63
2022/01/04 09:34:16;;;;;;;4.57;3.00;;;8.50;99.90;;;;;;5019111;28;20705;-64
2022/01/04 09:36:43;;;;;;;4.50;2.77;;;8.60;99.90;;;;;;5019985;28;20212;-68
2022/01/04 09:39:15;;;;;;;5.40;3.40;;;8.60;99.90;;;;;;5019513;28;20266;-68
2022/01/04 09:41:41;;;;;;;8.80;5.83;;;8.70;99.90;;;;;;5018721;28;20540;-67
2022/01/04 09:44:07;;;;;;;7.67;4.93;;;8.60;99.90;;;;;;5017928;28;20196;-66
2022/01/04 09:46:33;;;;;;;9.33;4.90;;;8.70;99.90;;;;;;5017165;28;20193;-66
2022/01/04 09:48:59;;;;;;;4.53;3.30;;;8.60;99.90;;;;;;5019241;28;20200;-66
2022/01/04 09:51:27;;;;;;;3.90;2.90;;;8.70;99.90;;;;;;5020182;28;20196;-65
2022/01/04 09:53:54;;;;;;;5.83;3.60;;;8.70;99.90;;;;;;5023885;28;20189;-65
2022/01/04 09:56:20;;;;;;;4.40;3.10;;;8.80;99.90;;;;;;5028619;28;20211;-66
2022/01/04 09:58:46;;;;;;;5.97;3.27;;;8.80;99.90;;;;;;5018925;28;20205;-65
2022/01/04 10:01:25;;;;;;;6.57;3.73;;;8.80;99.90;;;;;;5019734;28;20785;-65
2022/01/04 10:03:51;;;;;;;6.27;3.30;;;8.80;99.90;;;;;;5019504;28;20191;-63
2022/01/04 10:06:18;;;;;;;3.83;2.87;;;8.80;99.90;;;;;;5013237;28;20568;-66
2022/01/04 10:08:53;;;;;;;5.93;3.13;;;8.80;99.90;;;;;;5013412;28;20591;-66
2022/01/04 10:11:35;;;;;;;4.23;3.10;;;8.80;99.90;;;;;;5020430;28;20250;-71
2022/01/04 10:14:21;;;;;;;4.20;2.33;;;8.80;99.90;;;;;;5025058;28;20180;-66
2022/01/04 10:16:55;;;;;;;3.97;3.03;;;8.80;99.90;;;;;;5021537;28;20220;-66
2022/01/04 10:20:00;;;;;;;3.13;2.60;;;8.70;99.90;;;;;;5012197;28;20355;-66
2022/01/04 10:22:32;;;;;;;3.87;2.70;;;8.70;99.90;;;;;;4993623;28;20216;-65
2022/01/04 10:25:01;;;;;;;5.13;3.00;;;8.70;99.90;;;;;;4992501;28;20186;-72
2022/01/04 10:27:41;;;;;;;4.03;2.37;;;8.70;99.90;;;;;;4988788;28;20210;-67
2022/01/04 10:30:20;;;;;;;4.07;2.60;;;8.80;99.90;;;;;;4994853;28;20202;-71
2022/01/04 10:32:54;;;;;;;5.70;2.90;;;8.80;99.90;;;;;;4991868;28;20198;-68
2022/01/04 10:35:42;;;;;;;3.47;2.83;;;8.80;99.90;;;;;;4986440;28;20218;-65
2022/01/04 10:38:12;;;;;;;6.20;2.87;;;8.90;99.90;;;;;;4998211;28;20229;-66
2022/01/04 10:41:00;;;;;;;5.50;3.27;;;8.90;99.90;;;;;;4982297;28;20260;-66
2022/01/04 10:43:51;;;;;;;16.90;7.40;;;9.00;99.90;;;;;;4991121;28;20204;-67
2022/01/04 10:46:20;;;;;;;60.53;19.27;;;8.90;99.90;;;;;;4990824;28;20217;-65
2022/01/04 10:48:48;;;;;;;19.43;9.13;;;8.90;99.90;;;;;;4991405;28;20272;-67
2022/01/04 10:51:21;;;;;;;40.50;14.60;;;8.80;99.90;;;;;;4991802;28;20197;-66
2022/01/04 10:54:00;;;;;;;11.30;5.20;;;8.90;99.90;;;;;;5009527;28;20254;-68
2022/01/04 10:56:32;;;;;;;10.23;5.00;;;9.00;99.90;;;;;;5017989;28;20291;-66
2022/01/04 10:59:02;;;;;;;6.90;4.40;;;9.10;99.90;;;;;;5015857;28;20217;-67
2022/01/04 11:01:31;;;;;;;6.60;4.43;;;9.10;99.90;;;;;;5018001;28;21503;-66
2022/01/04 11:04:00;;;;;;;8.17;3.70;;;9.10;99.90;;;;;;5015339;28;20189;-66
2022/01/04 11:06:35;;;;;;;6.23;3.70;;;9.10;99.90;;;;;;5020710;28;20234;-66
2022/01/04 11:09:04;;;;;;;6.17;4.13;;;9.10;99.90;;;;;;5020035;28;20278;-65
2022/01/04 11:11:30;;;;;;;9.17;5.30;;;9.10;99.90;;;;;;5020688;28;20271;-65
2022/01/04 11:13:59;;;;;;;5.30;3.93;;;9.10;99.90;;;;;;5019859;28;20196;-65
2022/01/04 11:16:27;;;;;;;5.20;3.90;;;9.10;99.90;;;;;;5022332;28;20180;-65
2022/01/04 11:18:55;;;;;;;5.43;3.73;;;9.00;99.90;;;;;;5018995;28;20295;-65
2022/01/04 11:21:31;;;;;;;4.87;3.43;;;9.00;99.90;;;;;;5011305;28;20203;-68
2022/01/04 11:23:56;;;;;;;5.47;3.87;;;9.10;99.90;;;;;;5016643;28;20265;-67
2022/01/04 11:26:23;;;;;;;5.33;3.53;;;9.00;99.90;;;;;;5016424;28;20288;-67
2022/01/04 11:28:51;;;;;;;3.80;3.10;;;9.10;99.90;;;;;;5016046;28;20200;-66
2022/01/04 11:31:34;;;;;;;5.27;3.97;;;9.00;99.90;;;;;;5014794;28;20268;-70
2022/01/04 11:34:10;;;;;;;5.10;3.40;;;9.00;99.90;;;;;;5018365;28;20251;-67
2022/01/04 11:36:39;;;;;;;7.03;3.70;;;9.10;99.90;;;;;;5021449;28;20208;-68
2022/01/04 11:39:28;;;;;;;5.37;3.67;;;9.10;99.90;;;;;;5021100;28;20288;-69
2022/01/04 11:41:55;;;;;;;6.63;3.73;;;9.10;99.90;;;;;;5019419;28;20196;-68
2022/01/04 11:44:24;;;;;;;5.33;3.60;;;9.10;99.90;;;;;;5020059;28;20235;-68
2022/01/04 11:47:06;;;;;;;5.73;3.80;;;9.10;99.90;;;;;;5015962;28;20189;-66
2022/01/04 11:49:36;;;;;;;6.60;3.73;;;9.10;99.90;;;;;;5019672;28;20183;-67
2022/01/04 11:52:03;;;;;;;5.80;3.97;;;9.10;99.90;;;;;;5014570;28;20231;-70
2022/01/04 11:54:31;;;;;;;6.60;4.97;;;9.10;99.90;;;;;;5018638;28;20199;-65
2022/01/04 11:57:06;;;;;;;4.70;3.83;;;9.10;99.90;;;;;;5018418;28;20418;-68
2022/01/04 11:59:42;;;;;;;5.40;3.80;;;9.00;99.90;;;;;;5025219;28;20204;-68
2022/01/04 12:02:29;;;;;;;5.13;3.57;;;9.10;99.90;;;;;;5023412;28;20188;-70
2022/01/04 12:04:59;;;;;;;4.30;3.20;;;9.10;99.90;;;;;;5020274;28;20701;-67
2022/01/04 12:07:47;;;;;;;5.13;3.60;;;9.10;99.90;;;;;;5019217;28;20180;-71
2022/01/04 12:10:22;;;;;;;2.73;1.87;;;9.10;99.90;;;;;;5021467;28;20269;-66
2022/01/04 12:12:57;;;;;;;2.97;1.50;;;9.00;99.90;;;;;;5024680;28;20644;-64
2022/01/04 12:15:36;;;;;;;2.63;1.87;;;8.90;99.90;;;;;;5022619;28;20199;-68
2022/01/04 12:18:23;;;;;;;5.67;3.27;;;8.90;99.90;;;;;;5021094;28;20215;-69
2022/01/04 12:20:56;;;;;;;3.83;1.83;;;8.90;99.90;;;;;;5023116;28;20204;-68
2022/01/04 12:23:31;;;;;;;8.63;2.80;;;8.90;99.90;;;;;;5024745;28;20197;-67
2022/01/04 12:26:06;;;;;;;3.57;2.20;;;8.80;99.90;;;;;;5019244;28;20184;-68
2022/01/04 12:28:43;;;;;;;8.50;3.77;;;8.80;99.90;;;;;;5021182;28;20192;-67
2022/01/04 12:31:20;;;;;;;4.27;2.33;;;8.80;99.90;;;;;;5021530;28;20188;-70
2022/01/04 12:34:01;;;;;;;3.33;2.10;;;8.90;99.90;;;;;;5019010;28;20727;-67
2022/01/04 12:36:34;;;;;;;3.97;1.83;;;8.80;99.90;;;;;;5020924;28;20192;-71
2022/01/04 12:39:14;;;;;;;4.60;2.20;;;8.80;99.90;;;;;;5028981;28;20224;-68
2022/01/04 12:41:42;;;;;;;3.57;2.47;;;8.80;99.90;;;;;;5031479;28;20216;-66
2022/01/04 12:44:10;;;;;;;2.80;1.63;;;8.70;99.90;;;;;;5022912;28;21196;-66
2022/01/04 12:46:38;;;;;;;3.13;1.70;;;8.80;99.90;;;;;;5025281;28;20569;-67
2022/01/04 12:49:15;;;;;;;2.87;2.20;;;8.80;99.90;;;;;;5021342;28;20189;-68
2022/01/04 12:51:44;;;;;;;10.77;5.00;;;8.80;99.90;;;;;;5022336;28;20272;-68
2022/01/04 12:54:12;;;;;;;2.77;2.27;;;8.80;99.90;;;;;;5023070;28;20185;-66
2022/01/04 12:56:47;;;;;;;3.47;1.73;;;8.80;99.90;;;;;;5022925;28;20342;-65
2022/01/04 12:59:21;;;;;;;8.73;4.20;;;8.80;99.90;;;;;;5022794;28;20299;-71
2022/01/04 13:01:48;;;;;;;2.33;1.53;;;8.80;99.90;;;;;;5019998;28;20196;-66
2022/01/04 13:04:21;;;;;;;2.47;1.77;;;8.80;99.90;;;;;;5023272;28;20206;-67
2022/01/04 13:06:48;;;;;;;2.40;1.60;;;8.80;99.90;;;;;;5030661;28;20200;-66
2022/01/04 13:09:18;;;;;;;1.80;1.20;;;8.80;99.90;;;;;;5019477;28;20197;-65